Time;durP1;ratioP1;P1;durP2;ratioP2;P2;SDS_P1;SDS_P2;PMS_P1;PMS_P2;Temp;Humidity;BMP_temperature;BMP_pressure;BME280_temperature;BME280_humidity;BME280_pressure;Samples;Min_cycle;Max_cycle;Signal;HPM_P1;HPM_P2
2022/02/19 00:00:06;;;;;;;0.67;0.43;;;7.50;99.90;;;;;;6241686;23;20077;-79
2022/02/19 00:02:32;;;;;;;4.37;0.90;;;7.50;99.30;;;;;;6240538;23;20028;-79
2022/02/19 00:04:58;;;;;;;0.80;0.63;;;7.60;98.00;;;;;;6241950;23;20020;-78
2022/02/19 00:07:25;;;;;;;3.03;0.40;;;7.60;97.90;;;;;;6242871;23;20597;-78
2022/02/19 00:09:51;;;;;;;0.40;0.40;;;7.60;97.60;;;;;;6242097;23;20335;-78
2022/02/19 00:12:17;;;;;;;0.50;0.50;;;7.70;96.30;;;;;;6241725;23;20027;-78
2022/02/19 00:14:43;;;;;;;5.73;0.77;;;7.60;96.50;;;;;;6240621;23;20417;-77
2022/02/19 00:17:09;;;;;;;0.47;0.37;;;7.70;96.00;;;;;;6239166;23;20946;-79
2022/02/19 00:19:35;;;;;;;2.67;0.73;;;7.70;95.40;;;;;;6239313;23;20055;-78
2022/02/19 00:22:01;;;;;;;3.07;1.00;;;7.70;95.10;;;;;;6242217;23;20043;-77
2022/02/19 00:24:27;;;;;;;3.90;1.30;;;7.80;95.70;;;;;;6239762;23;20086;-78
2022/02/19 00:26:54;;;;;;;0.50;0.30;;;7.70;96.10;;;;;;6239318;23;20020;-79
2022/02/19 00:29:20;;;;;;;0.80;0.43;;;7.60;96.60;;;;;;6239280;23;20291;-79
2022/02/19 00:31:46;;;;;;;1.90;0.50;;;7.60;97.60;;;;;;6239622;23;20020;-79
2022/02/19 00:34:12;;;;;;;2.87;1.87;;;7.50;98.30;;;;;;6239104;23;20085;-78
2022/02/19 00:36:38;;;;;;;2.13;1.20;;;7.40;99.80;;;;;;6241304;23;20043;-78
2022/02/19 00:39:04;;;;;;;1.83;0.23;;;7.40;99.70;;;;;;6240168;23;20428;-78
2022/02/19 00:41:31;;;;;;;2.00;0.80;;;7.30;99.90;;;;;;6239042;23;20026;-78
2022/02/19 00:43:57;;;;;;;1.13;0.30;;;7.30;99.90;;;;;;6240389;23;20545;-77
2022/02/19 00:46:23;;;;;;;0.80;0.80;;;7.20;99.90;;;;;;6239100;23;20459;-77
2022/02/19 00:48:49;;;;;;;0.47;0.43;;;7.30;99.00;;;;;;6239522;23;20031;-77
2022/02/19 00:51:15;;;;;;;4.43;1.37;;;7.30;98.50;;;;;;6240852;23;20103;-77
2022/02/19 00:53:41;;;;;;;2.37;1.27;;;7.40;97.60;;;;;;6242297;23;20047;-76
2022/02/19 00:56:09;;;;;;;0.67;0.57;;;7.40;97.30;;;;;;6243065;23;20308;-75
2022/02/19 00:58:36;;;;;;;3.30;1.07;;;7.30;97.30;;;;;;6236325;23;20077;-77
2022/02/19 01:01:02;;;;;;;1.83;0.60;;;7.40;96.80;;;;;;6242666;23;20052;-77
2022/02/19 01:03:28;;;;;;;1.10;0.93;;;7.40;96.20;;;;;;6242603;23;20036;-77
2022/02/19 01:05:54;;;;;;;2.00;0.80;;;7.40;96.40;;;;;;6242861;23;20058;-75
2022/02/19 01:08:20;;;;;;;2.33;0.60;;;7.30;96.10;;;;;;6242340;23;20094;-76
2022/02/19 01:10:48;;;;;;;5.10;0.80;;;7.30;95.50;;;;;;6242605;23;20016;-75
2022/02/19 01:13:14;;;;;;;3.33;0.97;;;7.40;95.60;;;;;;6242961;23;20054;-77
2022/02/19 01:15:42;;;;;;;1.40;0.40;;;7.30;95.60;;;;;;6242962;23;20032;-75
2022/02/19 01:18:08;;;;;;;0.50;0.50;;;7.30;95.50;;;;;;6243291;23;20127;-77
2022/02/19 01:20:34;;;;;;;3.67;1.23;;;7.30;95.50;;;;;;6242278;23;20016;-78
2022/02/19 01:23:00;;;;;;;0.40;0.40;;;7.30;95.10;;;;;;6242624;23;20028;-76
2022/02/19 01:25:26;;;;;;;1.40;0.40;;;7.20;95.00;;;;;;6242709;23;20520;-77
2022/02/19 01:27:52;;;;;;;2.87;0.93;;;7.20;94.80;;;;;;6242999;23;20027;-77
2022/02/19 01:30:18;;;;;;;4.07;1.27;;;7.20;94.30;;;;;;6242366;23;21533;-76
2022/02/19 01:32:44;;;;;;;2.73;1.17;;;7.30;93.90;;;;;;6242370;23;20028;-78
2022/02/19 01:35:11;;;;;;;3.60;0.97;;;7.20;93.90;;;;;;6242596;23;20335;-78
2022/02/19 01:37:37;;;;;;;4.47;0.87;;;7.30;92.80;;;;;;6242699;23;20376;-76
2022/02/19 01:40:05;;;;;;;7.30;1.47;;;7.30;92.30;;;;;;6242304;23;20619;-76
2022/02/19 01:42:30;;;;;;;1.23;1.00;;;7.40;91.20;;;;;;6244938;23;20023;-78
2022/02/19 01:44:56;;;;;;;2.33;0.43;;;7.40;91.20;;;;;;6249666;23;20048;-78
2022/02/19 01:47:22;;;;;;;1.13;0.80;;;7.40;91.30;;;;;;6248793;23;20110;-78
2022/02/19 01:49:49;;;;;;;10.63;1.23;;;7.40;90.50;;;;;;6249272;23;20029;-78
2022/02/19 01:52:16;;;;;;;1.13;0.43;;;7.40;90.80;;;;;;6247121;23;20051;-78
2022/02/19 01:54:43;;;;;;;1.07;0.50;;;7.40;90.00;;;;;;6247894;23;20024;-78
2022/02/19 01:57:09;;;;;;;2.97;0.53;;;7.40;90.10;;;;;;6246067;23;20028;-76
2022/02/19 01:59:36;;;;;;;5.50;1.90;;;7.30;90.30;;;;;;6242520;23;20035;-76
2022/02/19 02:02:02;;;;;;;1.80;0.90;;;7.30;90.40;;;;;;6242528;23;20020;-76
2022/02/19 02:04:29;;;;;;;4.43;1.17;;;7.30;90.40;;;;;;6242575;23;20028;-77
2022/02/19 02:06:55;;;;;;;3.17;0.80;;;7.20;90.90;;;;;;6242327;23;20339;-77
2022/02/19 02:09:22;;;;;;;2.90;0.87;;;7.30;91.20;;;;;;6242469;23;20035;-78
2022/02/19 02:11:48;;;;;;;1.40;0.53;;;7.20;91.80;;;;;;6242539;23;20063;-77
2022/02/19 02:14:15;;;;;;;2.20;0.80;;;7.20;91.40;;;;;;6242930;23;20031;-77
2022/02/19 02:16:42;;;;;;;7.47;1.03;;;7.20;91.30;;;;;;6242250;23;20402;-75
2022/02/19 02:19:09;;;;;;;2.73;0.97;;;7.20;91.00;;;;;;6242158;23;20032;-76
2022/02/19 02:21:36;;;;;;;1.83;0.50;;;7.20;91.00;;;;;;6242400;23;20024;-76
2022/02/19 02:24:02;;;;;;;2.87;0.93;;;7.20;90.90;;;;;;6242382;23;20020;-76
2022/02/19 02:26:29;;;;;;;2.10;1.37;;;7.10;90.60;;;;;;6242668;23;20020;-77
2022/02/19 02:28:55;;;;;;;2.00;0.60;;;7.10;90.90;;;;;;6242022;23;20028;-78
2022/02/19 02:31:21;;;;;;;3.13;0.90;;;7.10;91.30;;;;;;6242075;23;20024;-77
2022/02/19 02:33:48;;;;;;;4.27;0.80;;;7.10;91.90;;;;;;6242833;23;20031;-76
2022/02/19 02:36:14;;;;;;;0.77;0.67;;;7.10;90.80;;;;;;6242144;23;20070;-76
2022/02/19 02:38:41;;;;;;;3.07;0.87;;;7.00;91.30;;;;;;6242339;23;20032;-76
2022/02/19 02:41:07;;;;;;;1.07;0.70;;;7.10;91.20;;;;;;6242112;23;20055;-77
2022/02/19 02:43:33;;;;;;;1.53;1.50;;;7.10;90.10;;;;;;6242807;23;20020;-77
2022/02/19 02:45:59;;;;;;;1.80;0.73;;;7.10;90.10;;;;;;6242666;23;20070;-76
2022/02/19 02:48:25;;;;;;;1.97;1.13;;;7.10;90.40;;;;;;6242306;23;20495;-78
2022/02/19 02:50:52;;;;;;;1.03;0.50;;;7.10;88.90;;;;;;6242405;23;20508;-78
2022/02/19 02:53:18;;;;;;;2.63;1.03;;;7.10;88.20;;;;;;6242465;23;20376;-77
2022/02/19 02:55:45;;;;;;;2.87;0.50;;;7.10;87.70;;;;;;6242662;23;20038;-79
2022/02/19 02:58:11;;;;;;;2.30;1.10;;;7.10;88.00;;;;;;6242340;23;20487;-76
2022/02/19 03:00:37;;;;;;;4.60;1.00;;;7.10;86.80;;;;;;6242220;23;20020;-77
2022/02/19 03:03:03;;;;;;;1.07;0.70;;;7.20;85.80;;;;;;6242406;23;20026;-77
2022/02/19 03:05:29;;;;;;;2.43;0.93;;;7.20;84.40;;;;;;6242417;23;20027;-77
2022/02/19 03:07:55;;;;;;;1.57;0.70;;;7.20;84.10;;;;;;6242112;23;20387;-75
2022/02/19 03:10:21;;;;;;;2.53;1.27;;;7.20;84.50;;;;;;6242454;23;20020;-77
2022/02/19 03:12:48;;;;;;;3.53;0.67;;;7.20;83.00;;;;;;6242019;23;20082;-80
2022/02/19 03:15:18;;;;;;;4.40;0.93;;;7.30;82.00;;;;;;6242322;23;20039;-76
2022/02/19 03:17:45;;;;;;;1.93;1.70;;;7.30;81.00;;;;;;6242292;23;20032;-80
2022/02/19 03:20:14;;;;;;;1.43;0.60;;;7.30;80.90;;;;;;6241858;23;20016;-80
2022/02/19 03:22:40;;;;;;;1.13;0.60;;;7.20;81.70;;;;;;6242578;23;20024;-76
2022/02/19 03:25:06;;;;;;;0.90;0.67;;;7.20;81.00;;;;;;6243737;23;20031;-77
2022/02/19 03:27:32;;;;;;;1.00;0.60;;;7.10;80.50;;;;;;6243603;23;20059;-77
2022/02/19 03:29:58;;;;;;;2.50;1.17;;;7.10;80.80;;;;;;6243256;23;20039;-76
2022/02/19 03:32:25;;;;;;;0.57;0.50;;;7.10;80.70;;;;;;6243468;23;20024;-75
2022/02/19 03:34:51;;;;;;;1.03;0.60;;;7.10;80.50;;;;;;6243258;23;20099;-76
2022/02/19 03:37:17;;;;;;;0.80;0.57;;;7.20;80.60;;;;;;6243833;23;20442;-79
2022/02/19 03:39:43;;;;;;;2.27;0.73;;;7.20;80.40;;;;;;6240962;23;20369;-77
2022/02/19 03:42:09;;;;;;;3.90;0.83;;;7.10;80.80;;;;;;6256756;23;20008;-78
2022/02/19 03:44:35;;;;;;;2.83;1.13;;;7.20;81.10;;;;;;6259591;23;20024;-79
2022/02/19 03:47:02;;;;;;;3.67;0.70;;;7.20;80.90;;;;;;6261186;23;20031;-79
2022/02/19 03:49:28;;;;;;;2.73;1.23;;;7.20;81.50;;;;;;6263313;23;20024;-78
2022/02/19 03:51:53;;;;;;;0.87;0.83;;;7.10;81.00;;;;;;6261140;23;20327;-78
2022/02/19 03:54:19;;;;;;;5.63;1.53;;;7.10;80.90;;;;;;6256154;23;20046;-78
2022/02/19 03:56:45;;;;;;;1.30;1.20;;;7.20;81.00;;;;;;6262180;23;20024;-77
2022/02/19 03:59:14;;;;;;;0.77;0.60;;;7.10;81.20;;;;;;6267307;23;20024;-77
2022/02/19 04:01:40;;;;;;;2.90;0.50;;;7.20;80.60;;;;;;6245847;23;20481;-77
2022/02/19 04:04:07;;;;;;;1.27;0.80;;;7.20;80.80;;;;;;6244822;23;20143;-78
2022/02/19 04:06:33;;;;;;;2.93;1.20;;;7.20;80.90;;;;;;6251184;23;20020;-76
2022/02/19 04:09:00;;;;;;;4.00;1.10;;;7.20;81.10;;;;;;6244099;23;20024;-76
2022/02/19 04:11:27;;;;;;;2.50;0.83;;;7.20;81.50;;;;;;6245496;23;20024;-77
2022/02/19 04:13:53;;;;;;;2.57;0.90;;;7.20;81.90;;;;;;6245404;23;20024;-77
2022/02/19 04:16:19;;;;;;;6.90;1.30;;;7.10;82.30;;;;;;6244505;23;20058;-77
2022/02/19 04:18:45;;;;;;;2.07;0.87;;;7.10;82.40;;;;;;6244302;23;20020;-78
2022/02/19 04:21:11;;;;;;;3.20;0.70;;;7.00;83.30;;;;;;6244797;23;20022;-77
2022/02/19 04:23:37;;;;;;;5.57;0.90;;;7.00;83.90;;;;;;6244415;23;20031;-77
2022/02/19 04:26:04;;;;;;;0.77;0.73;;;7.00;85.30;;;;;;6244804;23;20031;-78
2022/02/19 04:28:30;;;;;;;1.23;0.40;;;6.90;86.20;;;;;;6244494;23;20466;-77
2022/02/19 04:30:56;;;;;;;6.30;1.27;;;6.90;87.80;;;;;;6245361;23;20020;-78
2022/02/19 04:33:22;;;;;;;0.40;0.40;;;6.80;89.70;;;;;;6243681;23;20455;-78
2022/02/19 04:35:48;;;;;;;1.30;1.20;;;6.80;90.40;;;;;;6244125;23;20027;-77
2022/02/19 04:38:15;;;;;;;1.33;1.07;;;6.70;91.10;;;;;;6243754;23;20463;-77
2022/02/19 04:40:42;;;;;;;7.03;2.67;;;6.70;91.80;;;;;;6243732;23;20020;-77
2022/02/19 04:43:08;;;;;;;6.10;1.13;;;6.60;92.50;;;;;;6243359;23;20474;-76
2022/02/19 04:45:34;;;;;;;2.60;1.70;;;6.60;92.60;;;;;;6243754;23;20024;-77
2022/02/19 04:48:01;;;;;;;5.13;1.57;;;6.60;93.30;;;;;;6243903;23;20020;-76
2022/02/19 04:50:26;;;;;;;3.73;0.80;;;6.60;93.20;;;;;;6243918;23;20450;-76
2022/02/19 04:52:52;;;;;;;0.50;0.50;;;6.50;93.50;;;;;;6237098;23;20032;-77
2022/02/19 04:55:19;;;;;;;3.07;0.60;;;6.50;93.90;;;;;;6243308;23;20031;-78
2022/02/19 04:57:45;;;;;;;2.23;1.60;;;6.50;93.90;;;;;;6243398;23;20451;-76
2022/02/19 05:00:13;;;;;;;1.13;0.97;;;6.50;94.30;;;;;;6243059;23;20524;-76
2022/02/19 05:02:40;;;;;;;1.70;0.63;;;6.50;94.20;;;;;;6242273;23;20031;-77
2022/02/19 05:05:07;;;;;;;4.13;2.43;;;6.50;94.10;;;;;;6239448;23;20032;-78
2022/02/19 05:07:33;;;;;;;5.80;0.93;;;6.50;94.50;;;;;;6239951;23;20028;-78
2022/02/19 05:09:59;;;;;;;0.97;0.97;;;6.50;94.80;;;;;;6239825;23;20056;-79
2022/02/19 05:12:25;;;;;;;1.03;0.87;;;6.40;94.90;;;;;;6236736;23;20032;-78
2022/02/19 05:14:51;;;;;;;0.63;0.63;;;6.40;95.00;;;;;;6239215;23;20486;-78
2022/02/19 05:17:17;;;;;;;1.90;0.90;;;6.40;95.10;;;;;;6240110;23;20024;-78
2022/02/19 05:19:43;;;;;;;1.47;1.20;;;6.50;95.00;;;;;;6240965;23;20031;-78
2022/02/19 05:22:09;;;;;;;2.23;2.00;;;6.50;95.30;;;;;;6240759;23;20055;-77
2022/02/19 05:24:35;;;;;;;1.27;0.93;;;6.40;95.70;;;;;;6244158;23;20023;-78
2022/02/19 05:27:01;;;;;;;1.63;0.87;;;6.40;95.50;;;;;;6240229;23;20031;-77
2022/02/19 05:29:28;;;;;;;2.57;0.90;;;6.30;96.10;;;;;;6242958;23;20028;-76
2022/02/19 05:31:54;;;;;;;2.03;1.37;;;6.30;96.00;;;;;;6243014;23;20021;-78
2022/02/19 05:34:20;;;;;;;4.20;1.33;;;6.30;95.80;;;;;;6243298;23;20028;-76
2022/02/19 05:36:46;;;;;;;1.03;0.73;;;6.30;96.00;;;;;;6235362;23;20503;-77
2022/02/19 05:39:11;;;;;;;2.03;1.30;;;6.30;96.10;;;;;;6242479;23;20051;-78
2022/02/19 05:41:37;;;;;;;1.77;0.90;;;6.30;96.40;;;;;;6242417;23;20016;-77
2022/02/19 05:44:04;;;;;;;1.87;1.07;;;6.30;96.60;;;;;;6242647;23;20027;-76
2022/02/19 05:46:31;;;;;;;0.93;0.87;;;6.30;96.30;;;;;;6241705;23;20099;-77
2022/02/19 05:48:57;;;;;;;1.47;0.80;;;6.30;96.20;;;;;;6242281;23;20509;-77
2022/02/19 05:51:23;;;;;;;4.17;1.20;;;6.30;96.20;;;;;;6242503;23;20020;-76
2022/02/19 05:53:49;;;;;;;5.43;2.90;;;6.30;96.20;;;;;;6242875;23;20020;-76
2022/02/19 05:56:15;;;;;;;6.87;3.77;;;6.30;96.80;;;;;;6242821;23;20485;-81
2022/02/19 05:58:43;;;;;;;3.10;1.43;;;6.30;96.80;;;;;;6242840;23;20027;-78
2022/02/19 06:01:09;;;;;;;0.70;0.70;;;6.20;97.40;;;;;;6242122;23;20027;-77
2022/02/19 06:03:35;;;;;;;1.90;0.90;;;6.20;97.80;;;;;;6242633;23;20031;-79
2022/02/19 06:06:01;;;;;;;4.33;0.70;;;6.10;98.10;;;;;;6242345;23;20020;-78
2022/02/19 06:08:28;;;;;;;0.77;0.77;;;6.10;98.70;;;;;;6243479;23;20024;-82
2022/02/19 06:10:54;;;;;;;1.53;1.10;;;6.10;99.10;;;;;;6236361;23;20020;-79
2022/02/19 06:13:20;;;;;;;1.47;0.80;;;6.10;99.40;;;;;;6242865;23;20051;-77
2022/02/19 06:15:46;;;;;;;1.30;1.20;;;6.00;99.90;;;;;;6242419;23;20032;-78
2022/02/19 06:18:15;;;;;;;1.57;1.17;;;6.00;99.90;;;;;;6242381;23;20447;-79
2022/02/19 06:20:42;;;;;;;4.60;0.77;;;5.90;99.90;;;;;;6242518;23;20027;-78
2022/02/19 06:23:08;;;;;;;0.83;0.83;;;5.90;99.90;;;;;;6242800;23;20028;-76
2022/02/19 06:25:34;;;;;;;1.33;1.20;;;5.90;99.90;;;;;;6242177;23;20024;-78
2022/02/19 06:28:02;;;;;;;5.73;1.77;;;5.90;99.90;;;;;;6242152;23;20024;-78
2022/02/19 06:30:28;;;;;;;1.97;1.00;;;5.90;99.90;;;;;;6242221;23;20020;-77
2022/02/19 06:32:55;;;;;;;1.33;0.70;;;5.80;99.90;;;;;;6242917;23;20024;-77
2022/02/19 06:35:21;;;;;;;2.50;1.03;;;5.80;99.90;;;;;;6239377;23;20027;-76
2022/02/19 06:37:48;;;;;;;1.23;0.90;;;5.80;99.90;;;;;;6242348;23;20495;-77
2022/02/19 06:40:16;;;;;;;1.93;0.90;;;5.80;99.90;;;;;;6241852;23;20027;-80
2022/02/19 06:42:44;;;;;;;1.27;1.17;;;5.80;99.90;;;;;;6240294;23;20031;-79
2022/02/19 06:45:10;;;;;;;3.40;1.03;;;5.80;99.90;;;;;;6242367;23;20330;-75
2022/02/19 06:47:37;;;;;;;1.37;0.90;;;5.80;99.90;;;;;;6242742;23;20028;-76
2022/02/19 06:50:04;;;;;;;2.40;1.63;;;5.90;99.90;;;;;;6245764;23;20047;-86
2022/02/19 06:52:34;;;;;;;2.90;1.33;;;5.80;99.90;;;;;;6253811;23;20024;-90
2022/02/19 06:55:03;;;;;;;1.20;1.10;;;5.90;99.90;;;;;;6265026;22;20031;-90
2022/02/19 06:57:30;;;;;;;1.50;0.47;;;5.90;99.90;;;;;;6266846;23;20020;-91
2022/02/19 06:59:57;;;;;;;4.77;1.00;;;5.90;99.90;;;;;;6264082;23;20030;-88
2022/02/19 07:02:23;;;;;;;15.13;6.33;;;6.00;99.90;;;;;;6246441;23;20031;-78
2022/02/19 07:04:49;;;;;;;6.87;4.13;;;6.00;99.90;;;;;;6243651;23;20339;-81
2022/02/19 07:07:16;;;;;;;5.00;2.83;;;6.10;99.90;;;;;;6245355;23;20031;-82
2022/02/19 07:09:42;;;;;;;4.53;1.67;;;6.10;99.90;;;;;;6247558;23;20024;-84
2022/02/19 07:12:10;;;;;;;0.97;0.67;;;6.10;99.90;;;;;;6244476;23;20447;-78
2022/02/19 07:14:36;;;;;;;2.07;1.00;;;6.10;99.90;;;;;;6243139;23;20493;-77
2022/02/19 07:17:04;;;;;;;1.23;0.67;;;6.20;99.90;;;;;;6243350;23;20024;-78
2022/02/19 07:19:31;;;;;;;3.50;0.77;;;6.20;99.90;;;;;;6241420;23;20129;-82
2022/02/19 07:21:56;;;;;;;2.90;0.60;;;6.10;99.90;;;;;;6245069;23;20016;-78
2022/02/19 07:24:22;;;;;;;1.57;0.83;;;6.10;99.90;;;;;;6243251;23;20378;-79
2022/02/19 07:26:48;;;;;;;0.90;0.90;;;6.20;99.90;;;;;;6244483;23;20102;-82
2022/02/19 07:29:15;;;;;;;1.00;0.97;;;6.20;99.90;;;;;;6245134;23;20020;-76
2022/02/19 07:31:41;;;;;;;8.20;6.17;;;6.20;99.90;;;;;;6242291;23;20482;-78
2022/02/19 07:34:07;;;;;;;11.43;6.90;;;6.10;99.90;;;;;;6242502;23;20024;-77
2022/02/19 07:36:33;;;;;;;5.83;2.90;;;6.00;99.90;;;;;;6242273;23;20437;-80
2022/02/19 07:38:59;;;;;;;0.77;0.77;;;5.90;99.90;;;;;;6246000;23;20023;-81
2022/02/19 07:41:25;;;;;;;3.13;1.60;;;5.90;99.90;;;;;;6245116;23;21887;-81
2022/02/19 07:43:51;;;;;;;1.47;1.20;;;5.90;99.90;;;;;;6245518;23;20146;-80
2022/02/19 07:46:18;;;;;;;1.93;1.00;;;5.80;99.90;;;;;;6245469;23;20020;-79
2022/02/19 07:48:44;;;;;;;0.70;0.70;;;5.80;99.90;;;;;;6245219;23;20343;-79
2022/02/19 07:59:22;;;;;;;2.63;0.90;;;5.80;99.90;;;;;;6242409;23;20027;-79
2022/02/19 08:01:49;;;;;;;1.10;0.97;;;5.80;99.90;;;;;;6243290;23;20020;-78
2022/02/19 08:04:15;;;;;;;1.77;0.80;;;5.80;99.90;;;;;;6241939;23;20031;-77
2022/02/19 08:06:41;;;;;;;1.70;1.23;;;5.80;99.90;;;;;;6241665;23;20020;-77
2022/02/19 08:09:06;;;;;;;4.13;1.23;;;5.80;99.90;;;;;;6242724;23;20031;-78
2022/02/19 08:11:32;;;;;;;1.67;1.00;;;5.80;99.90;;;;;;6244528;23;20017;-80
2022/02/19 08:13:58;;;;;;;0.87;0.67;;;5.80;99.90;;;;;;6243998;23;20039;-78
2022/02/19 08:16:24;;;;;;;2.10;1.20;;;5.90;99.90;;;;;;6243189;23;20020;-79
2022/02/19 08:18:52;;;;;;;9.07;4.20;;;5.90;99.90;;;;;;6240856;23;20020;-79
2022/02/19 08:21:20;;;;;;;0.77;0.53;;;5.90;99.90;;;;;;6243494;23;20324;-77
2022/02/19 08:23:46;;;;;;;0.57;0.57;;;6.00;99.90;;;;;;6244245;23;20028;-78
2022/02/19 08:26:13;;;;;;;1.80;0.70;;;6.00;99.90;;;;;;6244737;23;20382;-84
2022/02/19 08:28:39;;;;;;;2.73;1.47;;;5.90;99.90;;;;;;6245590;23;20028;-81
2022/02/19 08:31:05;;;;;;;1.43;1.20;;;6.00;99.90;;;;;;6246440;23;20133;-82
2022/02/19 08:33:31;;;;;;;1.40;1.20;;;6.10;99.90;;;;;;6243998;23;20032;-82
2022/02/19 08:35:58;;;;;;;1.90;0.67;;;6.20;99.90;;;;;;6248452;23;20042;-81
2022/02/19 08:38:27;;;;;;;1.23;1.13;;;6.10;99.90;;;;;;6261385;23;20074;-82
2022/02/19 08:40:53;;;;;;;31.70;16.87;;;6.10;99.90;;;;;;6257219;23;20042;-83
2022/02/19 08:43:19;;;;;;;3.23;1.43;;;6.30;99.90;;;;;;6254341;23;20374;-80
2022/02/19 08:45:46;;;;;;;1.53;1.33;;;6.40;99.90;;;;;;6248158;23;20024;-79
2022/02/19 08:48:12;;;;;;;1.90;1.63;;;6.30;99.90;;;;;;6245892;23;20031;-80
2022/02/19 08:50:40;;;;;;;2.40;0.80;;;6.20;99.90;;;;;;6254409;23;20020;-82
2022/02/19 08:53:06;;;;;;;0.50;0.50;;;6.30;99.90;;;;;;6253580;23;20086;-82
2022/02/19 08:55:33;;;;;;;8.63;5.37;;;6.10;99.90;;;;;;6249577;23;21151;-80
2022/02/19 08:57:59;;;;;;;3.73;2.40;;;6.20;99.90;;;;;;6238356;23;20039;-77
2022/02/19 09:00:25;;;;;;;0.70;0.70;;;6.30;99.90;;;;;;6243387;23;20678;-76
2022/02/19 09:02:51;;;;;;;1.27;0.90;;;6.20;99.90;;;;;;6236573;23;20028;-81
2022/02/19 09:05:20;;;;;;;3.23;0.67;;;6.00;99.90;;;;;;6119182;23;20136;-81
2022/02/19 09:07:46;;;;;;;0.90;0.90;;;5.90;99.90;;;;;;6089543;23;20026;-78
2022/02/19 09:10:14;;;;;;;3.70;1.20;;;5.90;99.90;;;;;;6155990;23;20029;-82
2022/02/19 09:12:46;;;;;;;0.83;0.53;;;5.90;99.90;;;;;;6158591;23;20030;-87
2022/02/19 09:15:12;;;;;;;1.55;0.68;;;6.00;99.90;;;;;;5929850;23;2027312;-78
2022/02/19 09:17:38;;;;;;;0.47;0.30;;;5.90;99.90;;;;;;6089106;23;20017;-84
2022/02/19 09:20:05;;;;;;;3.93;2.00;;;5.90;99.90;;;;;;6093670;23;20477;-82
2022/02/19 09:22:31;;;;;;;2.60;0.57;;;5.90;99.90;;;;;;6095944;23;20041;-80
2022/02/19 09:24:57;;;;;;;2.43;1.40;;;5.80;99.90;;;;;;6131156;23;20024;-80
2022/02/19 09:27:24;;;;;;;0.67;0.67;;;6.00;99.90;;;;;;6135210;23;20081;-80
2022/02/19 09:29:50;;;;;;;0.83;0.83;;;5.90;99.90;;;;;;6131179;23;20084;-77
2022/02/19 09:32:16;;;;;;;0.30;0.30;;;6.00;99.90;;;;;;6122719;23;20441;-77
2022/02/19 09:34:42;;;;;;;1.57;1.20;;;6.10;99.90;;;;;;6121501;23;20018;-76
2022/02/19 09:37:08;;;;;;;0.93;0.53;;;6.10;99.90;;;;;;6124421;23;20030;-84
2022/02/19 09:39:33;;;;;;;1.03;0.60;;;6.10;99.90;;;;;;6096449;23;20073;-81
2022/02/19 09:42:03;;;;;;;2.83;0.53;;;6.30;99.90;;;;;;6120124;23;20389;-77
2022/02/19 09:44:30;;;;;;;1.03;0.90;;;6.50;99.90;;;;;;6118862;23;20029;-79
2022/02/19 09:46:57;;;;;;;1.97;0.57;;;6.70;99.90;;;;;;6080432;23;20049;-79
2022/02/19 09:49:24;;;;;;;4.47;1.00;;;6.40;99.90;;;;;;6120437;23;20032;-81
2022/02/19 09:51:50;;;;;;;0.80;0.80;;;6.30;99.90;;;;;;6120417;23;20017;-79
2022/02/19 09:54:15;;;;;;;5.20;0.90;;;6.00;99.90;;;;;;6121875;23;20029;-80
2022/02/19 09:56:41;;;;;;;1.00;0.93;;;5.90;99.90;;;;;;6120171;23;20076;-78
2022/02/19 09:59:12;;;;;;;4.33;0.50;;;5.80;99.90;;;;;;6121342;23;20043;-81
2022/02/19 10:01:40;;;;;;;2.50;0.73;;;5.80;99.90;;;;;;6121824;23;20055;-80
2022/02/19 10:04:06;;;;;;;2.83;0.80;;;5.90;99.90;;;;;;6121175;23;20025;-85
2022/02/19 10:06:34;;;;;;;0.60;0.20;;;5.80;99.90;;;;;;6123463;23;20054;-80
2022/02/19 10:09:14;;;;;;;1.90;1.30;;;5.90;99.90;;;;;;6122943;23;20025;-81
2022/02/19 10:11:41;;;;;;;2.40;0.90;;;6.10;99.90;;;;;;6037209;23;1503795;-88
2022/02/19 10:14:28;;;;;;;3.30;0.90;;;6.10;99.90;;;;;;6070742;23;20014;-82
2022/02/19 10:17:16;;;;;;;2.97;1.00;;;6.10;99.90;;;;;;6122304;23;20461;-80
2022/02/19 10:19:54;;;;;;;2.37;1.20;;;6.10;99.90;;;;;;6125007;23;20097;-81
2022/02/19 10:22:23;;;;;;;7.20;1.20;;;6.20;99.90;;;;;;6106087;23;20049;-78
2022/02/19 10:24:52;;;;;;;2.40;1.37;;;6.10;99.90;;;;;;6057432;23;20025;-82
2022/02/19 10:27:19;;;;;;;1.87;0.60;;;6.30;99.90;;;;;;6124166;23;20458;-79
2022/02/19 10:29:51;;;;;;;2.30;0.70;;;6.20;99.90;;;;;;6097119;23;20025;-80
2022/02/19 10:32:20;;;;;;;2.13;0.67;;;6.10;99.90;;;;;;6101195;23;20070;-79
2022/02/19 10:34:59;;;;;;;7.63;0.87;;;6.10;99.90;;;;;;6097193;23;20065;-79
2022/02/19 10:37:28;;;;;;;0.60;0.60;;;6.30;99.90;;;;;;6098577;23;20026;-80
2022/02/19 10:39:56;;;;;;;1.00;0.90;;;6.40;99.90;;;;;;6101746;23;20022;-80
2022/02/19 10:42:32;;;;;;;4.57;0.90;;;6.40;99.90;;;;;;6097405;23;20018;-78
2022/02/19 10:44:59;;;;;;;22.80;10.77;;;6.40;99.90;;;;;;6097109;23;20051;-80
2022/02/19 10:47:28;;;;;;;2.67;2.47;;;6.50;99.90;;;;;;6097750;23;20022;-81
2022/02/19 10:50:09;;;;;;;12.50;3.40;;;6.60;99.90;;;;;;6098522;23;20026;-80
2022/02/19 10:52:37;;;;;;;1.02;0.63;;;6.70;99.90;;;;;;6097123;23;20026;-79
2022/02/19 10:55:06;;;;;;;2.00;1.43;;;6.60;99.90;;;;;;6101416;23;20291;-80
2022/02/19 10:57:40;;;;;;;0.60;0.40;;;6.60;99.90;;;;;;6098312;23;20037;-79
2022/02/19 11:00:14;;;;;;;2.53;0.50;;;6.50;99.90;;;;;;6100812;23;20037;-81
2022/02/19 11:02:47;;;;;;;1.40;0.73;;;6.70;99.90;;;;;;6097759;23;20080;-84
2022/02/19 11:05:14;;;;;;;4.23;2.20;;;6.90;99.90;;;;;;6099614;23;20058;-80
2022/02/19 11:07:43;;;;;;;3.83;0.70;;;6.80;99.90;;;;;;6098435;23;20405;-80
2022/02/19 11:10:12;;;;;;;2.20;0.70;;;6.70;99.90;;;;;;6097075;23;20093;-79
2022/02/19 11:12:39;;;;;;;4.37;0.80;;;6.70;99.90;;;;;;6096910;23;20047;-79
2022/02/19 11:15:08;;;;;;;3.30;1.80;;;6.50;99.90;;;;;;6097662;23;20026;-80
2022/02/19 11:17:36;;;;;;;2.57;0.60;;;6.50;99.90;;;;;;6098091;23;20522;-81
2022/02/19 11:20:06;;;;;;;2.07;0.80;;;6.40;99.90;;;;;;6098256;23;20030;-80
2022/02/19 11:22:34;;;;;;;1.43;0.67;;;6.30;99.90;;;;;;6098455;23;20019;-79
2022/02/19 11:25:03;;;;;;;1.60;1.17;;;6.10;99.90;;;;;;6097853;23;20022;-80
2022/02/19 11:27:34;;;;;;;1.23;0.63;;;6.10;99.90;;;;;;6097974;23;20027;-80
2022/02/19 11:30:04;;;;;;;3.13;1.20;;;6.20;99.90;;;;;;6097409;23;20023;-81
2022/02/19 11:32:33;;;;;;;4.87;2.00;;;6.20;99.90;;;;;;6097198;23;20732;-78
2022/02/19 11:35:00;;;;;;;1.90;0.70;;;6.20;99.90;;;;;;6097744;23;20054;-81
2022/02/19 11:37:28;;;;;;;8.67;1.77;;;6.20;99.90;;;;;;6097547;23;20033;-79
2022/02/19 11:40:02;;;;;;;4.10;0.77;;;6.40;99.90;;;;;;6097951;23;20049;-81
2022/02/19 11:42:37;;;;;;;3.30;0.93;;;6.60;99.90;;;;;;6100015;23;20043;-82
2022/02/19 11:45:28;;;;;;;1.90;1.10;;;6.90;99.90;;;;;;6101937;23;20026;-80
2022/02/19 11:48:28;;;;;;;3.20;1.27;;;7.00;99.90;;;;;;6099674;23;20454;-80
2022/02/19 11:51:13;;;;;;;9.00;1.30;;;7.20;99.90;;;;;;6100066;23;20442;-80
2022/02/19 11:53:42;;;;;;;0.63;0.57;;;7.10;99.90;;;;;;6102092;23;20023;-80
2022/02/19 11:56:14;;;;;;;1.70;0.70;;;7.40;99.90;;;;;;6101861;23;20094;-78
2022/02/19 11:58:51;;;;;;;1.63;0.50;;;7.90;99.90;;;;;;6101483;23;20030;-82
2022/02/19 12:01:18;;;;;;;2.10;0.70;;;8.30;99.90;;;;;;6101295;23;20022;-80
2022/02/19 12:03:45;;;;;;;5.17;1.43;;;7.90;99.90;;;;;;6102536;23;20026;-81
2022/02/19 12:06:18;;;;;;;28.77;16.33;;;7.50;99.90;;;;;;6104103;23;20055;-82
2022/02/19 12:09:17;;;;;;;19.43;10.07;;;7.50;99.90;;;;;;6102634;23;20025;-88
2022/02/19 12:12:04;;;;;;;3.00;1.13;;;7.30;99.90;;;;;;6109281;23;20022;-83
2022/02/19 12:14:50;;;;;;;3.53;1.83;;;7.30;99.90;;;;;;6086047;23;20049;-81
2022/02/19 12:17:18;;;;;;;2.83;1.07;;;7.20;99.90;;;;;;6113456;23;20026;-83
2022/02/19 12:19:59;;;;;;;5.23;0.83;;;7.20;99.90;;;;;;6118154;23;20048;-82
2022/02/19 12:22:32;;;;;;;2.40;0.75;;;7.30;99.90;;;;;;6116379;23;20033;-83
2022/02/19 12:25:00;;;;;;;3.67;0.83;;;7.40;99.90;;;;;;6115677;23;20027;-82
2022/02/19 12:27:30;;;;;;;3.53;0.53;;;7.40;99.90;;;;;;6114942;23;20018;-84
2022/02/19 12:30:20;;;;;;;0.77;0.50;;;7.40;99.80;;;;;;6113894;23;20022;-82
2022/02/19 12:32:48;;;;;;;0.87;0.43;;;7.40;99.10;;;;;;6116012;23;20018;-82
2022/02/19 12:35:15;;;;;;;1.67;0.63;;;7.50;98.10;;;;;;6112416;23;20025;-84
2022/02/19 12:37:42;;;;;;;3.93;0.50;;;7.50;98.10;;;;;;6111056;23;20022;-83
2022/02/19 12:40:16;;;;;;;3.30;0.93;;;7.40;97.90;;;;;;6104613;23;20022;-84
2022/02/19 12:42:48;;;;;;;1.43;0.87;;;7.50;97.60;;;;;;6111938;23;20043;-81
2022/02/19 12:45:15;;;;;;;3.63;1.00;;;7.70;97.10;;;;;;6107829;23;20030;-83
2022/02/19 12:47:42;;;;;;;1.90;0.73;;;8.20;96.50;;;;;;6103263;23;20023;-84
2022/02/19 12:50:12;;;;;;;3.33;1.50;;;8.20;95.90;;;;;;6110932;23;20022;-84
2022/02/19 12:52:39;;;;;;;2.83;0.80;;;8.30;95.50;;;;;;6113600;23;20078;-82
2022/02/19 12:55:16;;;;;;;1.77;0.55;;;8.60;95.20;;;;;;6103177;23;20464;-82
2022/02/19 12:57:44;;;;;;;0.60;0.50;;;9.20;93.10;;;;;;6107356;23;20022;-85
2022/02/19 13:00:12;;;;;;;1.85;0.75;;;8.90;92.90;;;;;;6111687;23;20023;-84
2022/02/19 13:02:39;;;;;;;2.45;0.77;;;8.80;93.40;;;;;;6115071;23;20023;-86
2022/02/19 13:05:10;;;;;;;6.57;2.20;;;8.70;93.00;;;;;;6117858;23;20022;-82